Terminal Aerodrome Forecast
Issued by NWS

Home | Current Version | Previous Version | Graphics & Text | Print | Product List | Glossary On
Versions: 1 2 3 4 5 6 7 8 9 10 11 12 13 14 15 16 17 18 19
000
FTUS43 KFGF 211740
TAFBJI
TAF
KBJI 211740Z 2118/2218 VRB06KT P6SM SCT100
     FM211900 18007KT P6SM SCT100
     FM220400 23003KT 5SM BR BKN100
     FM220700 VRB03KT 1/4SM FG OVC050
     FM221200 VRB03KT 1/4SM FG OVC007=

USA.gov is the U.S. government's official web portal to all federal, state and local government web resources and services.